createdAt,value
2022-09-17T00:02:03.261Z,16.90
2022-09-17T00:04:34.307Z,17.80
2022-09-17T00:07:05.235Z,17.30
2022-09-17T00:09:36.327Z,17.40
2022-09-17T00:12:07.361Z,17.30
2022-09-17T00:14:38.362Z,17.70
2022-09-17T00:17:09.296Z,17.80
2022-09-17T00:19:40.526Z,17.60
2022-09-17T00:22:11.352Z,17.70
2022-09-17T00:24:42.389Z,17.60
2022-09-17T00:27:13.217Z,17.40
2022-09-17T00:29:44.066Z,17.30
2022-09-17T00:32:15.039Z,17.40
2022-09-17T00:34:46.685Z,17.40
2022-09-17T00:37:18.710Z,17.20
2022-09-17T00:39:50.376Z,16.70
2022-09-17T00:42:22.901Z,17.70
2022-09-17T00:44:57.891Z,17.40
2022-09-17T00:47:37.503Z,17.80
2022-09-17T00:50:20.120Z,17.50
2022-09-17T00:52:56.753Z,17.90
2022-09-17T00:55:39.210Z,17.60
2022-09-17T00:58:13.137Z,17.50
2022-09-17T01:00:44.057Z,17.00
2022-09-17T01:03:15.114Z,17.20
2022-09-17T01:06:09.945Z,17.30
2022-09-17T01:09:25.536Z,17.60
2022-09-17T01:12:02.916Z,17.40
2022-09-17T01:15:26.299Z,16.90
2022-09-17T01:18:24.818Z,17.10
2022-09-17T01:21:20.409Z,17.40
2022-09-17T01:24:45.785Z,17.20
2022-09-17T01:27:55.126Z,17.20
2022-09-17T01:31:13.676Z,16.50
2022-09-17T01:34:16.893Z,17.00
2022-09-17T01:37:04.774Z,16.90
2022-09-17T01:40:00.965Z,16.80
2022-09-17T01:43:18.033Z,17.30
2022-09-17T01:45:53.262Z,17.70
2022-09-17T01:48:33.961Z,17.50
2022-09-17T01:51:17.100Z,17.40
2022-09-17T01:54:01.261Z,16.50
2022-09-17T01:56:43.085Z,16.70
2022-09-17T01:59:22.327Z,16.70
2022-09-17T02:01:59.967Z,16.70
2022-09-17T02:04:54.317Z,16.60
2022-09-17T02:07:26.064Z,17.00
2022-09-17T02:10:06.944Z,17.40
2022-09-17T02:12:45.580Z,16.50
2022-09-17T02:15:25.570Z,16.20
2022-09-17T02:18:28.505Z,16.20
2022-09-17T02:21:12.482Z,16.90
2022-09-17T02:24:00.921Z,16.80
2022-09-17T02:26:33.001Z,17.30
2022-09-17T02:29:13.077Z,16.80
2022-09-17T02:31:43.997Z,17.20
2022-09-17T02:34:15.455Z,17.80
2022-09-17T02:36:46.891Z,17.40
2022-09-17T02:39:17.794Z,17.50
2022-09-17T02:42:26.573Z,16.80
2022-09-17T02:45:42.779Z,16.90
2022-09-17T02:48:56.944Z,17.20
2022-09-17T02:52:04.915Z,16.70
2022-09-17T02:54:52.492Z,17.30
2022-09-17T02:57:40.670Z,16.60
2022-09-17T03:00:23.323Z,16.70
2022-09-17T03:02:59.813Z,17.00
2022-09-17T03:05:32.162Z,16.90
2022-09-17T03:08:03.109Z,17.20
2022-09-17T03:10:33.951Z,17.50
2022-09-17T03:13:04.890Z,17.60
2022-09-17T03:15:35.803Z,17.40
2022-09-17T03:18:07.037Z,18.00
2022-09-17T03:20:38.075Z,17.40
2022-09-17T03:23:08.931Z,17.30
2022-09-17T03:25:39.812Z,17.30
2022-09-17T03:28:10.654Z,17.20
2022-09-17T03:30:43.592Z,16.30
2022-09-17T03:33:14.775Z,16.80
2022-09-17T03:35:46.422Z,17.00
2022-09-17T03:38:17.602Z,16.90
2022-09-17T03:41:05.026Z,17.00
2022-09-17T03:43:36.219Z,16.60
2022-09-17T03:46:07.467Z,16.70
2022-09-17T03:48:39.754Z,16.70
2022-09-17T03:51:10.858Z,16.70
2022-09-17T03:53:41.733Z,16.80
2022-09-17T03:56:12.606Z,17.30
2022-09-17T03:58:43.502Z,17.20
2022-09-17T04:01:14.873Z,17.50
2022-09-17T04:03:46.016Z,17.20
2022-09-17T04:06:16.849Z,17.40
2022-09-17T04:08:47.788Z,16.70
2022-09-17T04:11:18.626Z,16.60
2022-09-17T04:13:49.853Z,17.40
2022-09-17T04:16:20.784Z,16.60
2022-09-17T04:18:51.661Z,16.30
2022-09-17T04:21:22.495Z,16.20
2022-09-17T04:23:53.605Z,16.50
2022-09-17T04:26:24.498Z,16.20
2022-09-17T04:28:55.400Z,16.40
2022-09-17T04:31:27.387Z,16.20
2022-09-17T04:33:58.427Z,16.40
2022-09-17T04:36:29.296Z,15.70
2022-09-17T04:39:00.368Z,15.80
2022-09-17T04:41:31.210Z,15.50
2022-09-17T04:44:02.326Z,15.60
2022-09-17T04:46:33.253Z,16.00
2022-09-17T04:49:04.185Z,16.20
2022-09-17T04:51:35.401Z,15.90
2022-09-17T04:54:06.674Z,15.80
2022-09-17T04:56:37.509Z,15.70
2022-09-17T04:59:08.454Z,15.80
2022-09-17T05:01:39.486Z,16.50
2022-09-17T05:04:11.146Z,16.10
2022-09-17T05:06:42.259Z,16.20
2022-09-17T05:09:14.104Z,16.20
2022-09-17T05:11:45.187Z,15.90
2022-09-17T05:14:16.123Z,15.80
2022-09-17T05:16:46.976Z,15.90
2022-09-17T05:19:17.917Z,16.20
2022-09-17T05:21:48.773Z,16.30
2022-09-17T05:24:19.666Z,16.30
2022-09-17T05:26:50.605Z,16.00
2022-09-17T05:29:21.492Z,15.60
2022-09-17T05:31:52.326Z,15.90
2022-09-17T05:34:23.225Z,16.30
2022-09-17T05:36:54.168Z,16.00
2022-09-17T05:39:28.878Z,16.40
2022-09-17T05:41:59.793Z,16.30
2022-09-17T05:44:30.682Z,15.50
2022-09-17T05:47:01.655Z,15.50
2022-09-17T05:49:32.672Z,16.20
2022-09-17T05:52:03.927Z,15.50
2022-09-17T05:54:34.789Z,16.00
2022-09-17T05:57:06.329Z,15.60
2022-09-17T05:59:37.305Z,15.90
2022-09-17T06:02:09.623Z,15.90
2022-09-17T06:04:40.671Z,16.20
2022-09-17T06:07:11.588Z,16.20
2022-09-17T06:09:42.581Z,16.30
2022-09-17T06:12:13.423Z,16.50
2022-09-17T06:14:44.272Z,16.80
2022-09-17T06:17:17.979Z,16.60
2022-09-17T06:19:52.480Z,16.10
2022-09-17T06:22:23.402Z,16.50
2022-09-17T06:24:54.366Z,16.20
2022-09-17T06:27:33.579Z,15.90
2022-09-17T06:30:06.069Z,16.00
2022-09-17T06:32:36.907Z,16.00
2022-09-17T06:35:08.583Z,15.90
2022-09-17T06:37:40.843Z,16.40
2022-09-17T06:40:11.909Z,16.50
2022-09-17T06:42:42.780Z,16.90
2022-09-17T06:45:16.797Z,16.50
2022-09-17T06:47:47.909Z,16.00
2022-09-17T06:50:19.297Z,15.80
2022-09-17T06:52:54.634Z,16.60
2022-09-17T06:55:25.515Z,16.30
2022-09-17T06:58:00.663Z,16.10
2022-09-17T07:00:31.657Z,15.90
2022-09-17T07:03:03.193Z,15.80
2022-09-17T07:05:34.077Z,15.70
2022-09-17T07:08:05.275Z,16.20
2022-09-17T07:10:37.494Z,15.80
2022-09-17T07:13:08.361Z,15.60
2022-09-17T07:15:39.348Z,15.60
2022-09-17T07:18:11.727Z,15.10
2022-09-17T07:20:42.585Z,15.00
2022-09-17T07:23:13.407Z,15.10
2022-09-17T07:25:44.266Z,15.70
2022-09-17T07:28:15.113Z,15.10
2022-09-17T07:30:46.006Z,15.00
2022-09-17T07:33:19.386Z,15.30
2022-09-17T07:36:02.034Z,15.00
2022-09-17T07:38:34.167Z,15.00
2022-09-17T07:41:13.409Z,14.90
2022-09-17T07:43:45.069Z,15.00
2022-09-17T07:46:18.967Z,15.10
2022-09-17T07:48:51.405Z,15.00
2022-09-17T07:51:25.777Z,14.90
2022-09-17T07:53:59.330Z,15.10
2022-09-17T07:56:30.435Z,15.10
2022-09-17T07:59:03.920Z,15.20
2022-09-17T08:01:36.493Z,15.80
2022-09-17T08:04:07.851Z,15.80
2022-09-17T08:06:40.287Z,15.70
2022-09-17T08:09:11.738Z,15.50
2022-09-17T08:11:58.567Z,15.50
2022-09-17T08:14:30.139Z,15.80
2022-09-17T08:17:01.088Z,15.40
2022-09-17T08:19:32.939Z,15.90
2022-09-17T08:22:03.820Z,15.70
2022-09-17T08:24:34.716Z,15.20
2022-09-17T08:27:05.588Z,15.80
2022-09-17T08:29:36.443Z,15.30
2022-09-17T08:32:07.281Z,15.70
2022-09-17T08:34:38.246Z,15.70
2022-09-17T08:37:09.084Z,15.80
2022-09-17T08:39:39.997Z,16.00
2022-09-17T08:42:37.785Z,15.80
2022-09-17T08:45:19.091Z,16.70
2022-09-17T08:47:50.446Z,16.90
2022-09-17T08:50:30.033Z,16.40
2022-09-17T08:53:34.924Z,17.10
2022-09-17T08:56:19.384Z,16.40
2022-09-17T08:59:22.453Z,16.00
2022-09-17T09:02:04.281Z,16.70
2022-09-17T09:05:05.496Z,17.50
2022-09-17T09:07:52.809Z,17.00
2022-09-17T09:10:28.461Z,16.60
2022-09-17T09:13:00.806Z,16.30
2022-09-17T09:15:45.040Z,16.80
2022-09-17T09:18:29.550Z,16.60
2022-09-17T09:21:29.613Z,17.30
2022-09-17T09:24:21.973Z,17.00
2022-09-17T09:27:24.051Z,16.70
2022-09-17T09:30:06.676Z,16.80
2022-09-17T09:33:00.844Z,17.00
2022-09-17T09:35:36.666Z,16.60
2022-09-17T09:38:33.950Z,17.00
2022-09-17T09:41:40.567Z,17.20
2022-09-17T09:44:15.619Z,17.10
2022-09-17T09:47:04.443Z,16.80
2022-09-17T09:50:17.134Z,17.00
2022-09-17T09:53:06.060Z,17.10
2022-09-17T09:56:34.434Z,17.90
2022-09-17T09:59:11.858Z,18.10
2022-09-17T10:01:45.183Z,18.10
2022-09-17T10:04:27.485Z,17.60
2022-09-17T10:07:07.950Z,17.60
2022-09-17T10:09:46.369Z,17.90
2022-09-17T10:12:18.478Z,18.20
2022-09-17T10:14:49.396Z,18.50
2022-09-17T10:17:26.219Z,17.80
2022-09-17T10:19:59.888Z,18.50
2022-09-17T10:22:44.163Z,17.50
2022-09-17T10:25:28.727Z,17.10
2022-09-17T10:28:06.203Z,17.40
2022-09-17T10:30:37.102Z,18.30
2022-09-17T10:33:26.395Z,18.10
2022-09-17T10:36:01.264Z,18.20
2022-09-17T10:38:41.394Z,17.80
2022-09-17T10:41:18.167Z,18.40
2022-09-17T10:43:52.630Z,18.40
2022-09-17T10:46:29.216Z,18.10
2022-09-17T10:49:36.642Z,18.70
2022-09-17T10:52:48.891Z,18.70
2022-09-17T10:55:45.554Z,19.00
2022-09-17T10:58:43.648Z,18.80
2022-09-17T11:01:23.432Z,19.60
2022-09-17T11:04:16.386Z,19.90
2022-09-17T11:07:57.871Z,19.50
2022-09-17T11:10:38.413Z,19.50
2022-09-17T11:13:23.563Z,19.10
2022-09-17T11:16:22.630Z,18.80
2022-09-17T11:19:24.085Z,19.10
2022-09-17T11:22:15.055Z,20.10
2022-09-17T11:25:44.267Z,19.60
2022-09-17T11:28:32.241Z,19.00
2022-09-17T11:31:49.706Z,19.20
2022-09-17T11:34:43.349Z,19.00
2022-09-17T11:37:31.657Z,18.90
2022-09-17T11:40:34.185Z,18.40
2022-09-17T11:43:25.454Z,18.60
2022-09-17T11:46:07.879Z,19.40
2022-09-17T11:49:22.385Z,19.70
2022-09-17T11:52:04.357Z,19.30
2022-09-17T11:54:49.111Z,19.30
2022-09-17T11:57:27.019Z,19.60
2022-09-17T12:00:16.316Z,19.30
2022-09-17T12:03:06.912Z,19.90
2022-09-17T12:05:48.662Z,19.20
2022-09-17T12:09:16.128Z,18.20
2022-09-17T12:12:06.933Z,18.80
2022-09-17T12:14:49.282Z,18.50
2022-09-17T12:17:28.926Z,18.20
2022-09-17T12:20:10.094Z,17.90
2022-09-17T12:22:44.520Z,17.90
2022-09-17T12:25:15.478Z,17.90
2022-09-17T12:28:06.339Z,17.50
2022-09-17T12:30:44.420Z,17.30
2022-09-17T12:33:38.600Z,16.60
2022-09-17T12:36:27.637Z,17.10
2022-09-17T12:39:34.824Z,17.10
2022-09-17T12:42:42.651Z,17.90
2022-09-17T12:45:22.505Z,18.60
2022-09-17T12:48:21.800Z,17.70
2022-09-17T12:51:10.613Z,17.20
2022-09-17T12:54:13.694Z,17.20
2022-09-17T12:57:29.313Z,17.30
2022-09-17T13:00:08.168Z,17.00
2022-09-17T13:03:01.991Z,17.00
2022-09-17T13:06:09.563Z,17.00
2022-09-17T13:09:27.160Z,17.10
2022-09-17T13:12:31.442Z,17.30
2022-09-17T13:15:39.902Z,17.30
2022-09-17T13:18:27.775Z,17.60
2022-09-17T13:21:16.651Z,17.60
2022-09-17T13:23:50.413Z,17.60
2022-09-17T13:26:34.424Z,17.20
2022-09-17T13:29:09.960Z,17.50
2022-09-17T13:31:44.677Z,18.00
2022-09-17T13:34:18.973Z,17.30
2022-09-17T13:36:54.798Z,17.40
2022-09-17T13:39:45.542Z,17.30
2022-09-17T13:42:45.713Z,17.70
2022-09-17T13:45:19.194Z,18.40
2022-09-17T13:48:11.790Z,18.10
2022-09-17T13:50:44.882Z,18.80
2022-09-17T13:53:15.730Z,19.00
2022-09-17T13:55:55.348Z,18.10
2022-09-17T13:58:31.020Z,18.40
2022-09-17T14:01:06.739Z,18.80
2022-09-17T14:03:48.509Z,18.50
2022-09-17T14:06:21.126Z,18.40
2022-09-17T14:08:57.916Z,18.00
2022-09-17T14:11:29.288Z,18.40
2022-09-17T14:14:26.252Z,18.30
2022-09-17T14:16:57.164Z,18.80
2022-09-17T14:19:51.268Z,18.90
2022-09-17T14:22:27.175Z,18.90
2022-09-17T14:24:59.055Z,19.20
2022-09-17T14:27:55.911Z,18.50
2022-09-17T14:30:31.073Z,19.30
2022-09-17T14:33:06.826Z,18.90
2022-09-17T14:36:06.392Z,19.60
2022-09-17T14:38:38.560Z,20.00
2022-09-17T14:41:12.418Z,20.40
2022-09-17T14:43:53.006Z,20.50
2022-09-17T14:46:32.190Z,19.50
2022-09-17T14:49:23.168Z,19.60
2022-09-17T14:51:56.631Z,20.10
2022-09-17T14:54:32.466Z,19.60
2022-09-17T14:57:09.311Z,19.90
2022-09-17T14:59:57.454Z,19.80
2022-09-17T15:02:37.630Z,19.90
2022-09-17T15:05:34.143Z,20.40
2022-09-17T15:08:11.313Z,20.30
2022-09-17T15:11:04.140Z,20.70
2022-09-17T15:13:50.449Z,21.00
2022-09-17T15:16:30.729Z,20.60
2022-09-17T15:19:03.785Z,19.70
2022-09-17T15:21:35.861Z,19.70
2022-09-17T15:24:53.070Z,19.80
2022-09-17T15:27:45.113Z,19.40
2022-09-17T15:30:25.450Z,19.30
2022-09-17T15:32:58.582Z,18.50
2022-09-17T15:35:34.123Z,18.50
2022-09-17T15:38:26.053Z,18.60
2022-09-17T15:41:23.648Z,18.60
2022-09-17T15:44:03.711Z,19.40
2022-09-17T15:46:44.397Z,19.10
2022-09-17T15:49:35.203Z,18.50
2022-09-17T15:52:31.250Z,18.80
2022-09-17T15:55:02.565Z,19.40
2022-09-17T15:57:33.727Z,20.10
2022-09-17T16:00:15.472Z,19.60
2022-09-17T16:02:46.590Z,19.90
2022-09-17T16:05:17.613Z,19.10
2022-09-17T16:07:48.589Z,18.90
2022-09-17T16:10:19.983Z,19.00
2022-09-17T16:12:50.994Z,18.60
2022-09-17T16:15:21.860Z,18.90
2022-09-17T16:17:52.959Z,18.70
2022-09-17T16:20:25.455Z,18.50
2022-09-17T16:22:57.338Z,18.70
2022-09-17T16:25:29.207Z,19.40
2022-09-17T16:28:10.756Z,20.00
2022-09-17T16:30:46.135Z,19.30
2022-09-17T16:33:18.939Z,19.20
2022-09-17T16:35:49.888Z,19.50
2022-09-17T16:38:20.811Z,19.10
2022-09-17T16:40:51.950Z,19.30
2022-09-17T16:43:23.306Z,19.60
2022-09-17T16:46:10.517Z,18.90
2022-09-17T16:48:43.670Z,18.90
2022-09-17T16:51:14.602Z,18.70
2022-09-17T16:53:45.840Z,18.80
2022-09-17T16:56:16.883Z,18.80
2022-09-17T16:58:47.805Z,19.50
2022-09-17T17:01:18.734Z,20.00
2022-09-17T17:03:52.926Z,19.90
2022-09-17T17:06:23.764Z,20.10
2022-09-17T17:08:54.708Z,19.60
2022-09-17T17:11:26.099Z,19.40
2022-09-17T17:13:57.388Z,19.20
2022-09-17T17:16:30.772Z,18.60
2022-09-17T17:19:01.745Z,16.80
2022-09-17T17:21:32.853Z,16.20
2022-09-17T17:24:04.023Z,15.90
2022-09-17T17:26:35.067Z,16.30
2022-09-17T17:29:05.944Z,17.00
2022-09-17T17:31:37.730Z,17.10
2022-09-17T17:34:09.079Z,16.90
2022-09-17T17:36:40.045Z,17.00
2022-09-17T17:39:11.070Z,17.00
2022-09-17T17:41:42.096Z,16.30
2022-09-17T17:44:13.133Z,16.10
2022-09-17T17:46:46.729Z,16.10
2022-09-17T17:49:17.915Z,15.70
2022-09-17T17:51:49.119Z,16.40
2022-09-17T17:54:22.011Z,16.30
2022-09-17T17:56:53.063Z,16.40
2022-09-17T17:59:23.997Z,16.50
2022-09-17T18:01:54.968Z,17.30
2022-09-17T18:04:26.082Z,17.30
2022-09-17T18:06:56.936Z,16.80
2022-09-17T18:09:27.805Z,17.10
2022-09-17T18:11:58.680Z,17.50
2022-09-17T18:14:32.065Z,17.80
2022-09-17T18:17:03.014Z,17.30
2022-09-17T18:19:33.879Z,17.20
2022-09-17T18:22:04.813Z,17.50
2022-09-17T18:24:35.663Z,17.50
2022-09-17T18:27:06.560Z,17.50
2022-09-17T18:29:37.592Z,17.40
2022-09-17T18:32:08.457Z,16.40
2022-09-17T18:34:39.329Z,16.40
2022-09-17T18:37:10.198Z,16.10
2022-09-17T18:42:31.879Z,16.50
2022-09-17T18:45:02.919Z,16.80
2022-09-17T18:47:33.807Z,16.50
2022-09-17T18:50:05.033Z,16.20
2022-09-17T18:52:35.890Z,16.30
2022-09-17T18:55:07.829Z,16.50
2022-09-17T18:57:38.681Z,16.40
2022-09-17T19:00:11.623Z,16.40
2022-09-17T19:02:42.496Z,16.20
2022-09-17T19:05:13.752Z,16.20
2022-09-17T19:07:48.566Z,16.50
2022-09-17T19:10:19.414Z,16.10
2022-09-17T19:12:50.362Z,16.00
2022-09-17T19:15:24.076Z,15.50
2022-09-17T19:17:55.023Z,15.40
2022-09-17T19:20:26.148Z,15.20
2022-09-17T19:22:57.020Z,15.10
2022-09-17T19:25:28.135Z,15.60
2022-09-17T19:27:59.284Z,15.40
2022-09-17T19:30:30.983Z,14.90
2022-09-17T19:33:01.908Z,14.40
2022-09-17T19:35:32.756Z,14.30
2022-09-17T19:38:04.009Z,15.10
2022-09-17T19:40:36.141Z,14.70
2022-09-17T19:43:07.169Z,15.20
2022-09-17T19:45:38.005Z,15.20
2022-09-17T19:48:08.869Z,14.80
2022-09-17T19:50:39.707Z,15.40
2022-09-17T19:53:10.890Z,15.40
2022-09-17T19:55:43.617Z,15.80
2022-09-17T19:58:14.842Z,15.80
2022-09-17T20:00:46.126Z,15.10
2022-09-17T20:03:17.041Z,15.50
2022-09-17T20:05:48.050Z,16.10
2022-09-17T20:08:19.654Z,15.90
2022-09-17T20:10:50.976Z,16.00
2022-09-17T20:13:25.348Z,15.80
2022-09-17T20:16:04.678Z,15.60
2022-09-17T20:18:36.605Z,15.90
2022-09-17T20:21:17.196Z,15.80
2022-09-17T20:23:48.572Z,15.90
2022-09-17T20:26:20.467Z,16.10
2022-09-17T20:28:52.646Z,16.30
2022-09-17T20:31:27.688Z,16.40
2022-09-17T20:34:01.845Z,16.50
2022-09-17T20:36:35.552Z,16.20
2022-09-17T20:39:16.548Z,15.90
2022-09-17T20:41:50.823Z,16.00
2022-09-17T20:44:21.805Z,16.70
2022-09-17T20:46:52.772Z,16.40
2022-09-17T20:49:23.746Z,16.50
2022-09-17T20:51:54.587Z,16.70
2022-09-17T20:54:25.546Z,16.70
2022-09-17T20:56:56.440Z,16.90
2022-09-17T20:59:32.520Z,16.40
2022-09-17T21:02:03.665Z,15.90
2022-09-17T21:04:34.600Z,15.60
2022-09-17T21:07:05.502Z,16.00
2022-09-17T21:09:41.832Z,15.90
2022-09-17T21:12:12.964Z,16.10
2022-09-17T21:14:43.801Z,15.90
2022-09-17T21:17:14.638Z,16.20
2022-09-17T21:19:45.506Z,16.40
2022-09-17T21:22:16.559Z,15.60
2022-09-17T21:24:47.403Z,15.50
2022-09-17T21:27:18.246Z,15.90
2022-09-17T21:29:49.102Z,16.00
2022-09-17T21:32:19.958Z,15.40
2022-09-17T21:34:50.937Z,15.40
2022-09-17T21:37:21.815Z,15.10
2022-09-17T21:39:52.711Z,15.80
2022-09-17T21:42:23.635Z,15.60
2022-09-17T21:44:54.467Z,15.90
2022-09-17T21:47:25.298Z,15.30
2022-09-17T21:49:56.145Z,15.20
2022-09-17T21:52:29.938Z,16.20
2022-09-17T21:55:00.824Z,15.90
2022-09-17T21:57:31.685Z,15.80
2022-09-17T22:00:05.447Z,16.20
2022-09-17T22:02:36.482Z,16.60
2022-09-17T22:05:08.281Z,16.90
2022-09-17T22:07:39.124Z,16.50
2022-09-17T22:10:14.276Z,16.80
2022-09-17T22:12:45.147Z,16.40
2022-09-17T22:15:16.130Z,16.40
2022-09-17T22:17:46.986Z,16.80
2022-09-17T22:20:19.407Z,16.80
2022-09-17T22:22:50.295Z,16.00
2022-09-17T22:25:21.143Z,16.10
2022-09-17T22:28:16.833Z,16.10
2022-09-17T22:30:43.127Z,15.80
2022-09-17T22:33:13.988Z,16.20
2022-09-17T22:35:44.862Z,15.80
2022-09-17T22:38:15.728Z,16.10
2022-09-17T22:40:46.617Z,16.20
2022-09-17T22:43:17.517Z,15.60
2022-09-17T22:45:48.370Z,15.70
2022-09-17T22:48:19.215Z,15.70
2022-09-17T22:50:53.306Z,15.50
2022-09-17T22:53:24.212Z,15.60
2022-09-17T22:55:56.923Z,15.60
2022-09-17T22:58:28.312Z,16.10
2022-09-17T23:01:06.186Z,15.60
2022-09-17T23:03:37.890Z,15.40
2022-09-17T23:06:12.525Z,15.70
2022-09-17T23:08:43.616Z,15.60
2022-09-17T23:11:27.174Z,16.00
2022-09-17T23:14:02.320Z,15.80
2022-09-17T23:16:41.018Z,16.10
2022-09-17T23:19:12.981Z,15.90
2022-09-17T23:21:45.236Z,15.90
2022-09-17T23:24:20.975Z,16.20
2022-09-17T23:26:51.880Z,16.50
2022-09-17T23:29:22.816Z,16.60
2022-09-17T23:31:53.659Z,16.50
2022-09-17T23:34:24.510Z,16.20
2022-09-17T23:36:55.342Z,16.50
2022-09-17T23:39:26.683Z,16.90
2022-09-17T23:41:57.590Z,16.70
2022-09-17T23:44:28.510Z,17.10
2022-09-17T23:46:59.362Z,16.20
2022-09-17T23:49:30.253Z,16.10
2022-09-17T23:52:01.510Z,15.70
2022-09-17T23:54:32.607Z,15.90
2022-09-17T23:57:03.557Z,16.20
2022-09-17T23:59:34.413Z,16.10
